NORTHEAST SUFFOLK  -  Special Weather Statement Special Weather Statement        NORTHERN NASSAU  -  Special Weather Statement Special Weather Statement        NORTHWEST SUFFOLK  -  Special Weather Statement Special Weather Statement        SOUTHEAST SUFFOLK  -  Special Weather Statement Special Weather Statement        SOUTHERN NASSAU  -  Special Weather Statement Special Weather Statement        SOUTHWEST SUFFOLK  -  Special Weather Statement Special Weather Statement      

Active alerts

Northern Nassau
  Details for Northern Nassau Special Weather Statement
Southern Nassau
  Details for Southern Nassau Special Weather Statement
Northwest Suffolk
  Details for Northwest Suffolk Special Weather Statement
Southwest Suffolk
  Details for Southwest Suffolk Special Weather Statement
Northeast Suffolk
  Details for Northeast Suffolk Special Weather Statement
Southeast Suffolk
  Details for Southeast Suffolk Special Weather Statement


WXM80 ListenWXM80 Stop

You find our weather info also at:

UK Metoffice

WeatherCloud

Weather Underground

Northeastern Weather Network

AWEKAS

Citizen Weather Observer Program (CWOP)

HAMweather, WeatherForYou, PWS Weather


Weather Underground History page Text

Daily Summary for March 15, 2017 Units:  Both    English   Metric
« Previous Day
Next Day »
Daily Weekly Monthly Yearly Custom
  High: Low: Average:
Temperature: 28.8 °F /  -1.8 °C 21.2 °F /  -6 °C 25 °F /  -3.9 °C
Dew Point: 18.7 °F /  -7.4 °C 11.9 °F /  -11.2 °C 15.1 °F /  -9.4 °C
Humidity: 76 % 56 % 66 %
Wind Speed: 15.4 mph /  24.8 km/h - 8.9 mph /  14.3 km/h
Wind Gust: 28.8 mph /  46.3 km/h - -
Wind:- - West
Pressure: 29.79 in /  1008.7 hPa 29.43 in /  996.5 hPa -
Precipitation: 0.01 in /  0.25 mm    
Historical Graphs
 
 
Tabular Data for March 15, 2017
Time Temperature Dew Point Pressure Wind Wind Speed Wind Gust Humidity Rainfall Rate (Hourly)
00:03 23.8 °F /  -4.6 °C 17.0 °F /  -8.3 °C 29.43 in /  996.5 hPa WSW 6.1 mph /  9.8 km/h 15.0 mph /  24.1 km/h 75 % 0.00 in /  0 mm
00:08 23.7 °F /  -4.6 °C 16.9 °F /  -8.4 °C 29.44 in /  996.8 hPa West 4.0 mph /  6.4 km/h 11.5 mph /  18.5 km/h 75 % 0.00 in /  0 mm
00:14 23.6 °F /  -4.7 °C 17.1 °F /  -8.3 °C 29.43 in /  996.5 hPa WSW 7.6 mph /  12.2 km/h 10.4 mph /  16.7 km/h 76 % 0.00 in /  0 mm
00:19 23.5 °F /  -4.7 °C 16.7 °F /  -8.5 °C 29.44 in /  996.8 hPa SW 9.3 mph /  15 km/h 16.1 mph /  25.9 km/h 75 % 0.00 in /  0 mm
00:24 23.5 °F /  -4.7 °C 17.0 °F /  -8.3 °C 29.43 in /  996.5 hPa West 6.2 mph /  10 km/h 10.4 mph /  16.7 km/h 76 % 0.00 in /  0 mm
00:29 23.4 °F /  -4.8 °C 16.9 °F /  -8.4 °C 29.43 in /  996.5 hPa SW 6.0 mph /  9.7 km/h 11.5 mph /  18.5 km/h 76 % 0.00 in /  0 mm
00:34 23.3 °F /  -4.8 °C 16.5 °F /  -8.6 °C 29.43 in /  996.5 hPa WSW 4.8 mph /  7.7 km/h 11.5 mph /  18.5 km/h 75 % 0.00 in /  0 mm
00:39 23.2 °F /  -4.9 °C 16.4 °F /  -8.7 °C 29.43 in /  996.5 hPa WSW 8.2 mph /  13.2 km/h 17.3 mph /  27.8 km/h 75 % 0.00 in /  0 mm
00:44 23.1 °F /  -4.9 °C 16.0 °F /  -8.9 °C 29.43 in /  996.5 hPa West 9.5 mph /  15.3 km/h 17.3 mph /  27.8 km/h 74 % 0.00 in /  0 mm
00:49 23.0 °F /  -5 °C 16.3 °F /  -8.7 °C 29.43 in /  996.5 hPa West 9.6 mph /  15.4 km/h 16.1 mph /  25.9 km/h 75 % 0.00 in /  0 mm
00:54 23.0 °F /  -5 °C 16.3 °F /  -8.7 °C 29.43 in /  996.5 hPa NW 5.6 mph /  9 km/h 12.0 mph /  19.3 km/h 75 % 0.00 in /  0 mm
00:59 22.9 °F /  -5.1 °C 16.2 °F /  -8.8 °C 29.43 in /  996.5 hPa WSW 6.3 mph /  10.1 km/h 11.5 mph /  18.5 km/h 75 % 0.00 in /  0 mm
01:04 22.8 °F /  -5.1 °C 15.8 °F /  -9 °C 29.44 in /  996.8 hPa WNW 9.7 mph /  15.6 km/h 20.7 mph /  33.3 km/h 74 % 0.00 in /  0 mm
01:09 22.7 °F /  -5.2 °C 15.7 °F /  -9.1 °C 29.44 in /  996.8 hPa WNW 5.8 mph /  9.3 km/h 9.2 mph /  14.8 km/h 74 % 0.00 in /  0 mm
01:14 22.6 °F /  -5.2 °C 15.2 °F /  -9.3 °C 29.44 in /  996.8 hPa NNW 9.6 mph /  15.4 km/h 18.0 mph /  29 km/h 73 % 0.00 in /  0 mm
01:19 22.5 °F /  -5.3 °C 15.1 °F /  -9.4 °C 29.45 in /  997.2 hPa West 5.9 mph /  9.5 km/h 16.1 mph /  25.9 km/h 73 % 0.00 in /  0 mm
01:24 22.4 °F /  -5.3 °C 15.1 °F /  -9.4 °C 29.45 in /  997.2 hPa WSW 8.6 mph /  13.8 km/h 13.8 mph /  22.2 km/h 73 % 0.00 in /  0 mm
01:30 22.4 °F /  -5.3 °C 14.7 °F /  -9.6 °C 29.45 in /  997.2 hPa SSW 8.7 mph /  14 km/h 15.0 mph /  24.1 km/h 72 % 0.00 in /  0 mm
01:35 22.2 °F /  -5.4 °C 14.5 °F /  -9.7 °C 29.45 in /  997.2 hPa SW 9.6 mph /  15.4 km/h 17.3 mph /  27.8 km/h 72 % 0.00 in /  0 mm
01:40 22.1 °F /  -5.5 °C 14.4 °F /  -9.8 °C 29.46 in /  997.5 hPa West 9.7 mph /  15.6 km/h 11.5 mph /  18.5 km/h 72 % 0.00 in /  0 mm
01:45 22.1 °F /  -5.5 °C 14.8 °F /  -9.6 °C 29.46 in /  997.5 hPa SW 5.4 mph /  8.7 km/h 11.5 mph /  18.5 km/h 73 % 0.00 in /  0 mm
01:50 22.0 °F /  -5.6 °C 14.3 °F /  -9.8 °C 29.47 in /  997.9 hPa SW 9.5 mph /  15.3 km/h 18.4 mph /  29.6 km/h 72 % 0.00 in /  0 mm
01:55 22.0 °F /  -5.6 °C 15.0 °F /  -9.4 °C 29.47 in /  997.9 hPa SW 9.6 mph /  15.4 km/h 13.0 mph /  20.9 km/h 74 % 0.01 in /  0.25 mm
02:00 22.0 °F /  -5.6 °C 14.3 °F /  -9.8 °C 29.48 in /  998.2 hPa WSW 6.2 mph /  10 km/h 16.1 mph /  25.9 km/h 72 % 0.01 in /  0.25 mm
02:05 22.0 °F /  -5.6 °C 14.7 °F /  -9.6 °C 29.48 in /  998.2 hPa WSW 2.8 mph /  4.5 km/h 4.6 mph /  7.4 km/h 73 % 0.01 in /  0.25 mm
02:10 22.0 °F /  -5.6 °C 14.3 °F /  -9.8 °C 29.48 in /  998.2 hPa West 8.7 mph /  14 km/h 16.1 mph /  25.9 km/h 72 % 0.01 in /  0.25 mm
02:15 22.0 °F /  -5.6 °C 14.0 °F /  -10 °C 29.48 in /  998.2 hPa West 8.6 mph /  13.8 km/h 13.8 mph /  22.2 km/h 71 % 0.01 in /  0.25 mm
02:20 22.0 °F /  -5.6 °C 14.3 °F /  -9.8 °C 29.48 in /  998.2 hPa WNW 11.7 mph /  18.8 km/h 18.4 mph /  29.6 km/h 72 % 0.01 in /  0.25 mm
02:25 22.0 °F /  -5.6 °C 14.0 °F /  -10 °C 29.48 in /  998.2 hPa WNW 11.4 mph /  18.3 km/h 19.6 mph /  31.5 km/h 71 % 0.01 in /  0.25 mm
02:30 22.0 °F /  -5.6 °C 14.0 °F /  -10 °C 29.47 in /  997.9 hPa West 8.4 mph /  13.5 km/h 16.1 mph /  25.9 km/h 71 % 0.01 in /  0.25 mm
02:35 21.9 °F /  -5.6 °C 14.3 °F /  -9.8 °C 29.48 in /  998.2 hPa SW 9.5 mph /  15.3 km/h 15.0 mph /  24.1 km/h 72 % 0.01 in /  0.25 mm
02:40 21.9 °F /  -5.6 °C 14.3 °F /  -9.8 °C 29.48 in /  998.2 hPa WNW 7.3 mph /  11.7 km/h 18.4 mph /  29.6 km/h 72 % 0.01 in /  0.25 mm
02:46 21.8 °F /  -5.7 °C 13.8 °F /  -10.1 °C 29.48 in /  998.2 hPa WSW 8.5 mph /  13.7 km/h 20.7 mph /  33.3 km/h 71 % 0.01 in /  0.25 mm
02:51 21.7 °F /  -5.7 °C 13.7 °F /  -10.2 °C 29.48 in /  998.2 hPa WSW 8.0 mph /  12.9 km/h 12.7 mph /  20.4 km/h 71 % 0.01 in /  0.25 mm
02:56 21.7 °F /  -5.7 °C 13.7 °F /  -10.2 °C 29.48 in /  998.2 hPa NW 6.3 mph /  10.1 km/h 8.1 mph /  13 km/h 71 % 0.00 in /  0 mm
03:01 21.7 °F /  -5.7 °C 14.1 °F /  -9.9 °C 29.48 in /  998.2 hPa NW 10.1 mph /  16.3 km/h 19.6 mph /  31.5 km/h 72 % 0.00 in /  0 mm
03:06 21.6 °F /  -5.8 °C 13.6 °F /  -10.2 °C 29.48 in /  998.2 hPa West 9.2 mph /  14.8 km/h 24.0 mph /  38.6 km/h 71 % 0.00 in /  0 mm
03:11 21.6 °F /  -5.8 °C 13.6 °F /  -10.2 °C 29.48 in /  998.2 hPa West 10.3 mph /  16.6 km/h 12.7 mph /  20.4 km/h 71 % 0.00 in /  0 mm
03:16 21.6 °F /  -5.8 °C 13.6 °F /  -10.2 °C 29.48 in /  998.2 hPa NW 10.1 mph /  16.3 km/h 20.7 mph /  33.3 km/h 71 % 0.00 in /  0 mm
03:21 21.5 °F /  -5.8 °C 13.2 °F /  -10.4 °C 29.48 in /  998.2 hPa WNW 10.5 mph /  16.9 km/h 17.3 mph /  27.8 km/h 70 % 0.00 in /  0 mm
03:26 21.5 °F /  -5.8 °C 13.2 °F /  -10.4 °C 29.48 in /  998.2 hPa West 4.6 mph /  7.4 km/h 11.5 mph /  18.5 km/h 70 % 0.00 in /  0 mm
03:31 21.4 °F /  -5.9 °C 13.1 °F /  -10.5 °C 29.49 in /  998.5 hPa WNW 7.5 mph /  12.1 km/h 11.5 mph /  18.5 km/h 70 % 0.00 in /  0 mm
03:36 21.4 °F /  -5.9 °C 13.1 °F /  -10.5 °C 29.48 in /  998.2 hPa West 7.4 mph /  11.9 km/h 12.7 mph /  20.4 km/h 70 % 0.00 in /  0 mm
03:41 21.4 °F /  -5.9 °C 13.1 °F /  -10.5 °C 29.49 in /  998.5 hPa West 11.3 mph /  18.2 km/h 24.2 mph /  38.9 km/h 70 % 0.00 in /  0 mm
03:46 21.3 °F /  -5.9 °C 13.0 °F /  -10.6 °C 29.49 in /  998.5 hPa West 11.6 mph /  18.7 km/h 20.7 mph /  33.3 km/h 70 % 0.00 in /  0 mm
03:51 21.3 °F /  -5.9 °C 13.0 °F /  -10.6 °C 29.49 in /  998.5 hPa West 10.7 mph /  17.2 km/h 17.3 mph /  27.8 km/h 70 % 0.00 in /  0 mm
03:56 21.3 °F /  -5.9 °C 12.7 °F /  -10.7 °C 29.50 in /  998.9 hPa NW 8.4 mph /  13.5 km/h 17.0 mph /  27.4 km/h 69 % 0.00 in /  0 mm
04:01 21.3 °F /  -5.9 °C 12.7 °F /  -10.7 °C 29.50 in /  998.9 hPa WNW 9.6 mph /  15.4 km/h 17.3 mph /  27.8 km/h 69 % 0.00 in /  0 mm
04:06 21.3 °F /  -5.9 °C 12.4 °F /  -10.9 °C 29.50 in /  998.9 hPa WNW 11.3 mph /  18.2 km/h 18.4 mph /  29.6 km/h 68 % 0.00 in /  0 mm
04:11 21.3 °F /  -5.9 °C 12.4 °F /  -10.9 °C 29.50 in /  998.9 hPa West 10.3 mph /  16.6 km/h 18.4 mph /  29.6 km/h 68 % 0.00 in /  0 mm
04:16 21.2 °F /  -6 °C 12.3 °F /  -10.9 °C 29.49 in /  998.5 hPa WNW 11.5 mph /  18.5 km/h 23.0 mph /  37 km/h 68 % 0.00 in /  0 mm
04:21 21.2 °F /  -6 °C 12.6 °F /  -10.8 °C 29.49 in /  998.5 hPa WSW 5.7 mph /  9.2 km/h 10.4 mph /  16.7 km/h 69 % 0.00 in /  0 mm
04:26 21.2 °F /  -6 °C 12.6 °F /  -10.8 °C 29.50 in /  998.9 hPa WNW 9.2 mph /  14.8 km/h 16.0 mph /  25.7 km/h 69 % 0.00 in /  0 mm
04:31 21.2 °F /  -6 °C 12.6 °F /  -10.8 °C 29.50 in /  998.9 hPa WSW 8.7 mph /  14 km/h 18.4 mph /  29.6 km/h 69 % 0.00 in /  0 mm
04:36 21.2 °F /  -6 °C 12.6 °F /  -10.8 °C 29.50 in /  998.9 hPa NNW 10.9 mph /  17.5 km/h 19.6 mph /  31.5 km/h 69 % 0.00 in /  0 mm
04:41 21.2 °F /  -6 °C 12.6 °F /  -10.8 °C 29.50 in /  998.9 hPa WSW 9.9 mph /  15.9 km/h 19.6 mph /  31.5 km/h 69 % 0.00 in /  0 mm
04:46 21.2 °F /  -6 °C 12.6 °F /  -10.8 °C 29.50 in /  998.9 hPa WNW 10.3 mph /  16.6 km/h 16.1 mph /  25.9 km/h 69 % 0.00 in /  0 mm
04:51 21.2 °F /  -6 °C 12.6 °F /  -10.8 °C 29.50 in /  998.9 hPa West 10.6 mph /  17.1 km/h 21.0 mph /  33.8 km/h 69 % 0.00 in /  0 mm
04:56 21.2 °F /  -6 °C 12.6 °F /  -10.8 °C 29.50 in /  998.9 hPa WNW 9.1 mph /  14.6 km/h 20.7 mph /  33.3 km/h 69 % 0.00 in /  0 mm
05:01 21.2 °F /  -6 °C 12.6 °F /  -10.8 °C 29.51 in /  999.2 hPa WNW 7.0 mph /  11.3 km/h 12.7 mph /  20.4 km/h 69 % 0.00 in /  0 mm
05:06 21.2 °F /  -6 °C 12.9 °F /  -10.6 °C 29.51 in /  999.2 hPa WSW 8.1 mph /  13 km/h 12.7 mph /  20.4 km/h 70 % 0.00 in /  0 mm
05:11 21.2 °F /  -6 °C 12.9 °F /  -10.6 °C 29.51 in /  999.2 hPa WNW 10.7 mph /  17.2 km/h 15.0 mph /  24.1 km/h 70 % 0.00 in /  0 mm
05:16 21.3 °F /  -5.9 °C 12.7 °F /  -10.7 °C 29.51 in /  999.2 hPa WSW 8.4 mph /  13.5 km/h 14.0 mph /  22.5 km/h 69 % 0.00 in /  0 mm
05:21 21.4 °F /  -5.9 °C 12.8 °F /  -10.7 °C 29.51 in /  999.2 hPa WNW 12.5 mph /  20.1 km/h 21.9 mph /  35.2 km/h 69 % 0.00 in /  0 mm
05:26 21.4 °F /  -5.9 °C 12.8 °F /  -10.7 °C 29.51 in /  999.2 hPa NW 14.2 mph /  22.9 km/h 20.0 mph /  32.2 km/h 69 % 0.00 in /  0 mm
05:32 21.4 °F /  -5.9 °C 13.1 °F /  -10.5 °C 29.51 in /  999.2 hPa WNW 8.8 mph /  14.2 km/h 17.0 mph /  27.4 km/h 70 % 0.00 in /  0 mm
05:37 21.5 °F /  -5.8 °C 13.2 °F /  -10.4 °C 29.51 in /  999.2 hPa NW 9.0 mph /  14.5 km/h 20.7 mph /  33.3 km/h 70 % 0.00 in /  0 mm
05:42 21.5 °F /  -5.8 °C 13.2 °F /  -10.4 °C 29.51 in /  999.2 hPa WNW 9.7 mph /  15.6 km/h 12.7 mph /  20.4 km/h 70 % 0.00 in /  0 mm
05:47 21.6 °F /  -5.8 °C 13.3 °F /  -10.4 °C 29.51 in /  999.2 hPa SW 6.8 mph /  10.9 km/h 12.7 mph /  20.4 km/h 70 % 0.00 in /  0 mm
05:52 21.6 °F /  -5.8 °C 13.0 °F /  -10.6 °C 29.51 in /  999.2 hPa NW 5.6 mph /  9 km/h 12.0 mph /  19.3 km/h 69 % 0.00 in /  0 mm
05:57 21.6 °F /  -5.8 °C 12.7 °F /  -10.7 °C 29.51 in /  999.2 hPa West 9.4 mph /  15.1 km/h 19.6 mph /  31.5 km/h 68 % 0.00 in /  0 mm
06:02 21.6 °F /  -5.8 °C 12.7 °F /  -10.7 °C 29.51 in /  999.2 hPa WSW 7.2 mph /  11.6 km/h 19.6 mph /  31.5 km/h 68 % 0.00 in /  0 mm
06:07 21.6 °F /  -5.8 °C 12.7 °F /  -10.7 °C 29.52 in /  999.5 hPa WSW 7.9 mph /  12.7 km/h 14.0 mph /  22.5 km/h 68 % 0.00 in /  0 mm
06:12 21.6 °F /  -5.8 °C 13.0 °F /  -10.6 °C 29.52 in /  999.5 hPa West 12.6 mph /  20.3 km/h 19.6 mph /  31.5 km/h 69 % 0.00 in /  0 mm
06:17 21.6 °F /  -5.8 °C 12.7 °F /  -10.7 °C 29.52 in /  999.5 hPa West 8.1 mph /  13 km/h 13.8 mph /  22.2 km/h 68 % 0.00 in /  0 mm
06:22 21.6 °F /  -5.8 °C 12.7 °F /  -10.7 °C 29.52 in /  999.5 hPa WSW 9.3 mph /  15 km/h 19.0 mph /  30.6 km/h 68 % 0.00 in /  0 mm
06:27 21.6 °F /  -5.8 °C 12.7 °F /  -10.7 °C 29.51 in /  999.2 hPa WSW 8.8 mph /  14.2 km/h 19.6 mph /  31.5 km/h 68 % 0.00 in /  0 mm
06:32 21.5 °F /  -5.8 °C 12.9 °F /  -10.6 °C 29.52 in /  999.5 hPa SW 8.0 mph /  12.9 km/h 11.5 mph /  18.5 km/h 69 % 0.00 in /  0 mm
06:37 21.5 °F /  -5.8 °C 13.2 °F /  -10.4 °C 29.52 in /  999.5 hPa West 10.2 mph /  16.4 km/h 18.4 mph /  29.6 km/h 70 % 0.00 in /  0 mm
06:42 21.5 °F /  -5.8 °C 12.9 °F /  -10.6 °C 29.52 in /  999.5 hPa WNW 13.2 mph /  21.2 km/h 23.0 mph /  37 km/h 69 % 0.00 in /  0 mm
06:47 21.5 °F /  -5.8 °C 12.6 °F /  -10.8 °C 29.52 in /  999.5 hPa SW 7.7 mph /  12.4 km/h 11.5 mph /  18.5 km/h 68 % 0.00 in /  0 mm
06:52 21.5 °F /  -5.8 °C 12.2 °F /  -11 °C 29.52 in /  999.5 hPa West 10.6 mph /  17.1 km/h 19.6 mph /  31.5 km/h 67 % 0.00 in /  0 mm
06:57 21.5 °F /  -5.8 °C 12.2 °F /  -11 °C 29.52 in /  999.5 hPa West 11.9 mph /  19.2 km/h 17.0 mph /  27.4 km/h 67 % 0.00 in /  0 mm
07:03 21.5 °F /  -5.8 °C 12.2 °F /  -11 °C 29.52 in /  999.5 hPa NW 11.1 mph /  17.9 km/h 20.0 mph /  32.2 km/h 67 % 0.00 in /  0 mm
07:08 21.5 °F /  -5.8 °C 12.2 °F /  -11 °C 29.53 in /  999.9 hPa West 7.0 mph /  11.3 km/h 15.0 mph /  24.1 km/h 67 % 0.00 in /  0 mm
07:13 21.5 °F /  -5.8 °C 11.9 °F /  -11.2 °C 29.53 in /  999.9 hPa WSW 7.0 mph /  11.3 km/h 22.0 mph /  35.4 km/h 66 % 0.00 in /  0 mm
07:18 21.5 °F /  -5.8 °C 12.2 °F /  -11 °C 29.53 in /  999.9 hPa West 8.8 mph /  14.2 km/h 16.1 mph /  25.9 km/h 67 % 0.00 in /  0 mm
07:23 21.6 °F /  -5.8 °C 12.3 °F /  -10.9 °C 29.53 in /  999.9 hPa West 11.3 mph /  18.2 km/h 23.0 mph /  37 km/h 67 % 0.00 in /  0 mm
07:28 21.6 °F /  -5.8 °C 12.0 °F /  -11.1 °C 29.53 in /  999.9 hPa WNW 7.9 mph /  12.7 km/h 17.3 mph /  27.8 km/h 66 % 0.00 in /  0 mm
07:33 21.7 °F /  -5.7 °C 12.4 °F /  -10.9 °C 29.53 in /  999.9 hPa WSW 11.6 mph /  18.7 km/h 18.4 mph /  29.6 km/h 67 % 0.00 in /  0 mm
07:38 21.9 °F /  -5.6 °C 12.3 °F /  -10.9 °C 29.53 in /  999.9 hPa West 8.3 mph /  13.4 km/h 12.7 mph /  20.4 km/h 66 % 0.00 in /  0 mm
07:43 22.1 °F /  -5.5 °C 12.8 °F /  -10.7 °C 29.53 in /  999.9 hPa SW 10.7 mph /  17.2 km/h 16.1 mph /  25.9 km/h 67 % 0.00 in /  0 mm
07:49 22.2 °F /  -5.4 °C 12.9 °F /  -10.6 °C 29.53 in /  999.9 hPa WSW 10.0 mph /  16.1 km/h 19.6 mph /  31.5 km/h 67 % 0.00 in /  0 mm
07:54 22.4 °F /  -5.3 °C 13.4 °F /  -10.3 °C 29.53 in /  999.9 hPa NW 7.8 mph /  12.6 km/h 19.6 mph /  31.5 km/h 68 % 0.00 in /  0 mm
07:59 22.6 °F /  -5.2 °C 14.0 °F /  -10 °C 29.53 in /  999.9 hPa WNW 6.6 mph /  10.6 km/h 11.5 mph /  18.5 km/h 69 % 0.00 in /  0 mm
08:04 22.7 °F /  -5.2 °C 13.7 °F /  -10.2 °C 29.53 in /  999.9 hPa WSW 7.2 mph /  11.6 km/h 12.7 mph /  20.4 km/h 68 % 0.00 in /  0 mm
08:09 22.8 °F /  -5.1 °C 13.8 °F /  -10.1 °C 29.54 in /  1000.2 hPa West 11.8 mph /  19 km/h 19.0 mph /  30.6 km/h 68 % 0.00 in /  0 mm
08:14 22.9 °F /  -5.1 °C 13.9 °F /  -10.1 °C 29.53 in /  999.9 hPa WNW 12.6 mph /  20.3 km/h 24.2 mph /  38.9 km/h 68 % 0.00 in /  0 mm
08:19 23.1 °F /  -4.9 °C 14.1 °F /  -9.9 °C 29.54 in /  1000.2 hPa WNW 8.5 mph /  13.7 km/h 16.0 mph /  25.7 km/h 68 % 0.00 in /  0 mm
08:24 23.3 °F /  -4.8 °C 14.3 °F /  -9.8 °C 29.54 in /  1000.2 hPa WSW 9.9 mph /  15.9 km/h 19.6 mph /  31.5 km/h 68 % 0.00 in /  0 mm
08:29 23.6 °F /  -4.7 °C 13.9 °F /  -10.1 °C 29.54 in /  1000.2 hPa WSW 12.5 mph /  20.1 km/h 21.9 mph /  35.2 km/h 66 % 0.00 in /  0 mm
08:34 23.6 °F /  -4.7 °C 14.2 °F /  -9.9 °C 29.53 in /  999.9 hPa West 7.6 mph /  12.2 km/h 12.7 mph /  20.4 km/h 67 % 0.00 in /  0 mm
08:39 23.6 °F /  -4.7 °C 13.9 °F /  -10.1 °C 29.53 in /  999.9 hPa WNW 10.4 mph /  16.7 km/h 19.6 mph /  31.5 km/h 66 % 0.00 in /  0 mm
08:44 23.6 °F /  -4.7 °C 14.2 °F /  -9.9 °C 29.53 in /  999.9 hPa West 4.6 mph /  7.4 km/h 15.0 mph /  24.1 km/h 67 % 0.00 in /  0 mm
08:49 23.7 °F /  -4.6 °C 14.0 °F /  -10 °C 29.53 in /  999.9 hPa NW 11.4 mph /  18.3 km/h 19.6 mph /  31.5 km/h 66 % 0.00 in /  0 mm
08:54 23.7 °F /  -4.6 °C 13.6 °F /  -10.2 °C 29.53 in /  999.9 hPa SW 11.2 mph /  18 km/h 19.6 mph /  31.5 km/h 65 % 0.00 in /  0 mm
08:59 23.6 °F /  -4.7 °C 13.2 °F /  -10.4 °C 29.53 in /  999.9 hPa West 6.8 mph /  10.9 km/h 20.7 mph /  33.3 km/h 64 % 0.00 in /  0 mm
09:04 23.7 °F /  -4.6 °C 13.3 °F /  -10.4 °C 29.53 in /  999.9 hPa West 9.8 mph /  15.8 km/h 19.6 mph /  31.5 km/h 64 % 0.00 in /  0 mm
09:09 24.1 °F /  -4.4 °C 14.0 °F /  -10 °C 29.54 in /  1000.2 hPa NW 7.8 mph /  12.6 km/h 11.5 mph /  18.5 km/h 65 % 0.00 in /  0 mm
09:14 24.3 °F /  -4.3 °C 13.9 °F /  -10.1 °C 29.54 in /  1000.2 hPa NNW 8.2 mph /  13.2 km/h 11.5 mph /  18.5 km/h 64 % 0.00 in /  0 mm
09:20 24.7 °F /  -4.1 °C 14.6 °F /  -9.7 °C 29.54 in /  1000.2 hPa NW 8.6 mph /  13.8 km/h 11.5 mph /  18.5 km/h 65 % 0.00 in /  0 mm
09:25 24.8 °F /  -4 °C 14.0 °F /  -10 °C 29.54 in /  1000.2 hPa WSW 11.5 mph /  18.5 km/h 20.0 mph /  32.2 km/h 63 % 0.00 in /  0 mm
09:30 24.9 °F /  -3.9 °C 14.4 °F /  -9.8 °C 29.54 in /  1000.2 hPa West 10.6 mph /  17.1 km/h 17.3 mph /  27.8 km/h 64 % 0.00 in /  0 mm
09:35 24.8 °F /  -4 °C 14.0 °F /  -10 °C 29.54 in /  1000.2 hPa WNW 10.2 mph /  16.4 km/h 19.6 mph /  31.5 km/h 63 % 0.00 in /  0 mm
09:40 24.9 °F /  -3.9 °C 14.1 °F /  -9.9 °C 29.54 in /  1000.2 hPa West 8.6 mph /  13.8 km/h 24.2 mph /  38.9 km/h 63 % 0.00 in /  0 mm
09:45 25.0 °F /  -3.9 °C 13.8 °F /  -10.1 °C 29.54 in /  1000.2 hPa West 11.1 mph /  17.9 km/h 21.9 mph /  35.2 km/h 62 % 0.00 in /  0 mm
09:50 25.3 °F /  -3.7 °C 14.1 °F /  -9.9 °C 29.54 in /  1000.2 hPa West 6.3 mph /  10.1 km/h 19.6 mph /  31.5 km/h 62 % 0.00 in /  0 mm
09:55 25.5 °F /  -3.6 °C 13.5 °F /  -10.3 °C 29.54 in /  1000.2 hPa SSW 14.2 mph /  22.9 km/h 28.8 mph /  46.3 km/h 60 % 0.00 in /  0 mm
10:00 25.6 °F /  -3.6 °C 14.4 °F /  -9.8 °C 29.54 in /  1000.2 hPa NW 7.6 mph /  12.2 km/h 18.4 mph /  29.6 km/h 62 % 0.00 in /  0 mm
10:05 25.6 °F /  -3.6 °C 14.0 °F /  -10 °C 29.54 in /  1000.2 hPa West 12.1 mph /  19.5 km/h 21.9 mph /  35.2 km/h 61 % 0.00 in /  0 mm
10:10 25.6 °F /  -3.6 °C 14.0 °F /  -10 °C 29.54 in /  1000.2 hPa WNW 10.1 mph /  16.3 km/h 18.4 mph /  29.6 km/h 61 % 0.00 in /  0 mm
10:15 25.7 °F /  -3.5 °C 14.8 °F /  -9.6 °C 29.54 in /  1000.2 hPa NW 6.0 mph /  9.7 km/h 15.0 mph /  24.1 km/h 63 % 0.00 in /  0 mm
10:20 25.8 °F /  -3.4 °C 14.2 °F /  -9.9 °C 29.54 in /  1000.2 hPa SW 8.4 mph /  13.5 km/h 16.1 mph /  25.9 km/h 61 % 0.00 in /  0 mm
10:25 25.9 °F /  -3.4 °C 14.7 °F /  -9.6 °C 29.54 in /  1000.2 hPa NW 10.2 mph /  16.4 km/h 13.8 mph /  22.2 km/h 62 % 0.00 in /  0 mm
10:30 26.1 °F /  -3.3 °C 14.5 °F /  -9.7 °C 29.54 in /  1000.2 hPa WSW 6.7 mph /  10.8 km/h 13.0 mph /  20.9 km/h 61 % 0.00 in /  0 mm
10:35 26.4 °F /  -3.1 °C 14.4 °F /  -9.8 °C 29.55 in /  1000.6 hPa WSW 11.0 mph /  17.7 km/h 18.4 mph /  29.6 km/h 60 % 0.00 in /  0 mm
10:40 26.6 °F /  -3 °C 14.2 °F /  -9.9 °C 29.54 in /  1000.2 hPa West 9.0 mph /  14.5 km/h 17.3 mph /  27.8 km/h 59 % 0.00 in /  0 mm
10:45 26.7 °F /  -2.9 °C 14.3 °F /  -9.8 °C 29.54 in /  1000.2 hPa West 9.1 mph /  14.6 km/h 19.6 mph /  31.5 km/h 59 % 0.00 in /  0 mm
10:50 27.0 °F /  -2.8 °C 14.6 °F /  -9.7 °C 29.54 in /  1000.2 hPa WNW 6.5 mph /  10.5 km/h 16.1 mph /  25.9 km/h 59 % 0.00 in /  0 mm
10:56 27.2 °F /  -2.7 °C 14.0 °F /  -10 °C 29.54 in /  1000.2 hPa WSW 11.7 mph /  18.8 km/h 19.6 mph /  31.5 km/h 57 % 0.00 in /  0 mm
11:01 27.4 °F /  -2.6 °C 14.9 °F /  -9.5 °C 29.53 in /  999.9 hPa West 11.1 mph /  17.9 km/h 18.0 mph /  29 km/h 59 % 0.00 in /  0 mm
11:06 27.3 °F /  -2.6 °C 14.5 °F /  -9.7 °C 29.54 in /  1000.2 hPa SSW 7.6 mph /  12.2 km/h 16.1 mph /  25.9 km/h 58 % 0.00 in /  0 mm
11:11 27.4 °F /  -2.6 °C 15.3 °F /  -9.3 °C 29.54 in /  1000.2 hPa NW 10.9 mph /  17.5 km/h 20.7 mph /  33.3 km/h 60 % 0.00 in /  0 mm
11:16 27.2 °F /  -2.7 °C 14.8 °F /  -9.6 °C 29.54 in /  1000.2 hPa West 11.4 mph /  18.3 km/h 16.1 mph /  25.9 km/h 59 % 0.00 in /  0 mm
11:21 27.0 °F /  -2.8 °C 14.9 °F /  -9.5 °C 29.54 in /  1000.2 hPa WNW 8.8 mph /  14.2 km/h 17.3 mph /  27.8 km/h 60 % 0.00 in /  0 mm
11:26 27.2 °F /  -2.7 °C 14.8 °F /  -9.6 °C 29.54 in /  1000.2 hPa WNW 5.6 mph /  9 km/h 16.1 mph /  25.9 km/h 59 % 0.00 in /  0 mm
11:31 27.4 °F /  -2.6 °C 16.4 °F /  -8.7 °C 29.54 in /  1000.2 hPa WSW 10.1 mph /  16.3 km/h 19.6 mph /  31.5 km/h 63 % 0.00 in /  0 mm
11:36 27.7 °F /  -2.4 °C 16.7 °F /  -8.5 °C 29.53 in /  999.9 hPa WNW 7.0 mph /  11.3 km/h 10.4 mph /  16.7 km/h 63 % 0.00 in /  0 mm
11:41 27.8 °F /  -2.3 °C 15.7 °F /  -9.1 °C 29.53 in /  999.9 hPa NW 9.9 mph /  15.9 km/h 18.4 mph /  29.6 km/h 60 % 0.00 in /  0 mm
11:46 28.0 °F /  -2.2 °C 15.5 °F /  -9.2 °C 29.53 in /  999.9 hPa West 8.7 mph /  14 km/h 16.1 mph /  25.9 km/h 59 % 0.00 in /  0 mm
11:51 27.9 °F /  -2.3 °C 15.8 °F /  -9 °C 29.53 in /  999.9 hPa West 9.3 mph /  15 km/h 17.3 mph /  27.8 km/h 60 % 0.00 in /  0 mm
11:56 27.7 °F /  -2.4 °C 15.6 °F /  -9.1 °C 29.52 in /  999.5 hPa West 10.9 mph /  17.5 km/h 15.0 mph /  24.1 km/h 60 % 0.00 in /  0 mm
12:01 27.5 °F /  -2.5 °C 14.6 °F /  -9.7 °C 29.53 in /  999.9 hPa SW 10.8 mph /  17.4 km/h 17.3 mph /  27.8 km/h 58 % 0.00 in /  0 mm
12:07 27.8 °F /  -2.3 °C 14.9 °F /  -9.5 °C 29.53 in /  999.9 hPa WSW 10.5 mph /  16.9 km/h 23.0 mph /  37 km/h 58 % 0.00 in /  0 mm
12:12 27.9 °F /  -2.3 °C 15.4 °F /  -9.2 °C 29.53 in /  999.9 hPa West 11.4 mph /  18.3 km/h 16.1 mph /  25.9 km/h 59 % 0.00 in /  0 mm
12:17 27.6 °F /  -2.4 °C 15.5 °F /  -9.2 °C 29.53 in /  999.9 hPa WSW 9.5 mph /  15.3 km/h 11.5 mph /  18.5 km/h 60 % 0.00 in /  0 mm
12:22 27.2 °F /  -2.7 °C 15.1 °F /  -9.4 °C 29.53 in /  999.9 hPa West 7.0 mph /  11.3 km/h 7.0 mph /  11.3 km/h 60 % 0.00 in /  0 mm
12:27 27.3 °F /  -2.6 °C 15.6 °F /  -9.1 °C 29.53 in /  999.9 hPa West 12.9 mph /  20.8 km/h 24.2 mph /  38.9 km/h 61 % 0.00 in /  0 mm
12:32 27.2 °F /  -2.7 °C 15.5 °F /  -9.2 °C 29.53 in /  999.9 hPa NW 7.3 mph /  11.7 km/h 19.6 mph /  31.5 km/h 61 % 0.00 in /  0 mm
12:37 27.2 °F /  -2.7 °C 15.5 °F /  -9.2 °C 29.53 in /  999.9 hPa WSW 11.7 mph /  18.8 km/h 16.1 mph /  25.9 km/h 61 % 0.00 in /  0 mm
12:42 27.2 °F /  -2.7 °C 15.1 °F /  -9.4 °C 29.53 in /  999.9 hPa West 8.6 mph /  13.8 km/h 17.3 mph /  27.8 km/h 60 % 0.00 in /  0 mm
12:47 27.6 °F /  -2.4 °C 15.9 °F /  -8.9 °C 29.53 in /  999.9 hPa WNW 6.6 mph /  10.6 km/h 13.8 mph /  22.2 km/h 61 % 0.00 in /  0 mm
12:52 27.8 °F /  -2.3 °C 15.7 °F /  -9.1 °C 29.53 in /  999.9 hPa West 13.4 mph /  21.6 km/h 24.2 mph /  38.9 km/h 60 % 0.00 in /  0 mm
12:57 28.1 °F /  -2.2 °C 16.7 °F /  -8.5 °C 29.53 in /  999.9 hPa WNW 6.6 mph /  10.6 km/h 11.5 mph /  18.5 km/h 62 % 0.00 in /  0 mm
13:02 27.7 °F /  -2.4 °C 18.2 °F /  -7.7 °C 29.53 in /  999.9 hPa WSW 8.6 mph /  13.8 km/h 18.4 mph /  29.6 km/h 67 % 0.00 in /  0 mm
13:07 27.5 °F /  -2.5 °C 18.0 °F /  -7.8 °C 29.53 in /  999.9 hPa WSW 8.6 mph /  13.8 km/h 16.1 mph /  25.9 km/h 67 % 0.00 in /  0 mm
13:12 27.6 °F /  -2.4 °C 18.1 °F /  -7.7 °C 29.53 in /  999.9 hPa SW 6.0 mph /  9.7 km/h 14.0 mph /  22.5 km/h 67 % 0.00 in /  0 mm
13:17 27.2 °F /  -2.7 °C 17.0 °F /  -8.3 °C 29.53 in /  999.9 hPa West 11.5 mph /  18.5 km/h 18.4 mph /  29.6 km/h 65 % 0.00 in /  0 mm
13:22 27.0 °F /  -2.8 °C 17.8 °F /  -7.9 °C 29.53 in /  999.9 hPa West 7.2 mph /  11.6 km/h 11.5 mph /  18.5 km/h 68 % 0.00 in /  0 mm
13:27 26.9 °F /  -2.8 °C 18.1 °F /  -7.7 °C 29.52 in /  999.5 hPa SW 5.0 mph /  8 km/h 11.5 mph /  18.5 km/h 69 % 0.00 in /  0 mm
13:32 26.7 °F /  -2.9 °C 17.2 °F /  -8.2 °C 29.52 in /  999.5 hPa WNW 7.7 mph /  12.4 km/h 11.5 mph /  18.5 km/h 67 % 0.00 in /  0 mm
13:37 26.7 °F /  -2.9 °C 15.4 °F /  -9.2 °C 29.52 in /  999.5 hPa WSW 10.3 mph /  16.6 km/h 23.0 mph /  37 km/h 62 % 0.00 in /  0 mm
13:42 27.0 °F /  -2.8 °C 14.9 °F /  -9.5 °C 29.52 in /  999.5 hPa West 8.1 mph /  13 km/h 15.0 mph /  24.1 km/h 60 % 0.00 in /  0 mm
13:47 27.2 °F /  -2.7 °C 16.6 °F /  -8.6 °C 29.52 in /  999.5 hPa SW 10.4 mph /  16.7 km/h 19.6 mph /  31.5 km/h 64 % 0.00 in /  0 mm
13:52 27.4 °F /  -2.6 °C 17.5 °F /  -8.1 °C 29.53 in /  999.9 hPa WSW 6.7 mph /  10.8 km/h 10.4 mph /  16.7 km/h 66 % 0.00 in /  0 mm
13:57 27.9 °F /  -2.3 °C 17.3 °F /  -8.2 °C 29.52 in /  999.5 hPa WSW 12.6 mph /  20.3 km/h 19.6 mph /  31.5 km/h 64 % 0.00 in /  0 mm
14:03 28.0 °F /  -2.2 °C 17.0 °F /  -8.3 °C 29.52 in /  999.5 hPa WSW 7.5 mph /  12.1 km/h 11.5 mph /  18.5 km/h 63 % 0.00 in /  0 mm
14:08 28.0 °F /  -2.2 °C 18.1 °F /  -7.7 °C 29.52 in /  999.5 hPa WSW 6.6 mph /  10.6 km/h 15.0 mph /  24.1 km/h 66 % 0.00 in /  0 mm
14:13 27.9 °F /  -2.3 °C 18.4 °F /  -7.6 °C 29.52 in /  999.5 hPa SW 7.6 mph /  12.2 km/h 16.1 mph /  25.9 km/h 67 % 0.00 in /  0 mm
14:18 27.9 °F /  -2.3 °C 18.7 °F /  -7.4 °C 29.52 in /  999.5 hPa WSW 10.5 mph /  16.9 km/h 18.4 mph /  29.6 km/h 68 % 0.00 in /  0 mm
14:23 27.9 °F /  -2.3 °C 18.0 °F /  -7.8 °C 29.52 in /  999.5 hPa WSW 10.0 mph /  16.1 km/h 19.0 mph /  30.6 km/h 66 % 0.00 in /  0 mm
14:28 27.9 °F /  -2.3 °C 17.6 °F /  -8 °C 29.52 in /  999.5 hPa West 10.2 mph /  16.4 km/h 16.1 mph /  25.9 km/h 65 % 0.00 in /  0 mm
14:33 28.0 °F /  -2.2 °C 15.9 °F /  -8.9 °C 29.52 in /  999.5 hPa WSW 5.5 mph /  8.9 km/h 12.7 mph /  20.4 km/h 60 % 0.00 in /  0 mm
14:38 28.4 °F /  -2 °C 15.9 °F /  -8.9 °C 29.52 in /  999.5 hPa WSW 8.8 mph /  14.2 km/h 19.6 mph /  31.5 km/h 59 % 0.00 in /  0 mm
14:43 28.6 °F /  -1.9 °C 15.7 °F /  -9.1 °C 29.52 in /  999.5 hPa West 7.6 mph /  12.2 km/h 14.0 mph /  22.5 km/h 58 % 0.00 in /  0 mm
14:48 28.8 °F /  -1.8 °C 15.5 °F /  -9.2 °C 29.52 in /  999.5 hPa SW 8.2 mph /  13.2 km/h 11.5 mph /  18.5 km/h 57 % 0.00 in /  0 mm
14:53 28.8 °F /  -1.8 °C 15.1 °F /  -9.4 °C 29.52 in /  999.5 hPa West 9.9 mph /  15.9 km/h 20.7 mph /  33.3 km/h 56 % 0.00 in /  0 mm
14:58 28.7 °F /  -1.8 °C 15.4 °F /  -9.2 °C 29.52 in /  999.5 hPa WNW 10.1 mph /  16.3 km/h 26.5 mph /  42.6 km/h 57 % 0.00 in /  0 mm
15:03 28.5 °F /  -1.9 °C 15.2 °F /  -9.3 °C 29.53 in /  999.9 hPa WNW 5.9 mph /  9.5 km/h 15.0 mph /  24.1 km/h 57 % 0.00 in /  0 mm
15:08 28.5 °F /  -1.9 °C 15.6 °F /  -9.1 °C 29.52 in /  999.5 hPa WSW 7.8 mph /  12.6 km/h 16.1 mph /  25.9 km/h 58 % 0.00 in /  0 mm
15:13 28.5 °F /  -1.9 °C 16.0 °F /  -8.9 °C 29.53 in /  999.9 hPa WNW 8.4 mph /  13.5 km/h 17.3 mph /  27.8 km/h 59 % 0.00 in /  0 mm
15:18 28.3 °F /  -2.1 °C 15.4 °F /  -9.2 °C 29.53 in /  999.9 hPa West 10.0 mph /  16.1 km/h 19.6 mph /  31.5 km/h 58 % 0.00 in /  0 mm
15:23 27.8 °F /  -2.3 °C 15.7 °F /  -9.1 °C 29.54 in /  1000.2 hPa WNW 14.2 mph /  22.9 km/h 19.0 mph /  30.6 km/h 60 % 0.00 in /  0 mm
15:28 27.3 °F /  -2.6 °C 16.4 °F /  -8.7 °C 29.53 in /  999.9 hPa WSW 7.5 mph /  12.1 km/h 18.4 mph /  29.6 km/h 63 % 0.00 in /  0 mm
15:33 27.2 °F /  -2.7 °C 15.9 °F /  -8.9 °C 29.54 in /  1000.2 hPa SW 9.4 mph /  15.1 km/h 20.7 mph /  33.3 km/h 62 % 0.00 in /  0 mm
15:38 27.2 °F /  -2.7 °C 15.5 °F /  -9.2 °C 29.54 in /  1000.2 hPa NW 8.2 mph /  13.2 km/h 17.0 mph /  27.4 km/h 61 % 0.00 in /  0 mm
15:43 27.2 °F /  -2.7 °C 15.5 °F /  -9.2 °C 29.54 in /  1000.2 hPa WSW 8.3 mph /  13.4 km/h 17.3 mph /  27.8 km/h 61 % 0.00 in /  0 mm
15:49 27.2 °F /  -2.7 °C 15.9 °F /  -8.9 °C 29.54 in /  1000.2 hPa WNW 7.8 mph /  12.6 km/h 11.5 mph /  18.5 km/h 62 % 0.00 in /  0 mm
15:53 27.1 °F /  -2.7 °C 15.4 °F /  -9.2 °C 29.55 in /  1000.6 hPa WNW 12.1 mph /  19.5 km/h 20.7 mph /  33.3 km/h 61 % 0.00 in /  0 mm
15:59 27.0 °F /  -2.8 °C 16.1 °F /  -8.8 °C 29.55 in /  1000.6 hPa WNW 8.5 mph /  13.7 km/h 13.8 mph /  22.2 km/h 63 % 0.00 in /  0 mm
16:04 27.1 °F /  -2.7 °C 16.5 °F /  -8.6 °C 29.55 in /  1000.6 hPa WSW 9.4 mph /  15.1 km/h 19.0 mph /  30.6 km/h 64 % 0.00 in /  0 mm
16:09 27.1 °F /  -2.7 °C 16.9 °F /  -8.4 °C 29.55 in /  1000.6 hPa WNW 6.9 mph /  11.1 km/h 11.5 mph /  18.5 km/h 65 % 0.00 in /  0 mm
16:14 27.0 °F /  -2.8 °C 17.1 °F /  -8.3 °C 29.55 in /  1000.6 hPa West 11.5 mph /  18.5 km/h 17.0 mph /  27.4 km/h 66 % 0.00 in /  0 mm
16:19 27.0 °F /  -2.8 °C 17.1 °F /  -8.3 °C 29.55 in /  1000.6 hPa West 10.2 mph /  16.4 km/h 15.0 mph /  24.1 km/h 66 % 0.00 in /  0 mm
16:24 26.9 °F /  -2.8 °C 17.0 °F /  -8.3 °C 29.56 in /  1000.9 hPa West 8.1 mph /  13 km/h 19.6 mph /  31.5 km/h 66 % 0.00 in /  0 mm
16:29 27.0 °F /  -2.8 °C 17.5 °F /  -8.1 °C 29.56 in /  1000.9 hPa NW 7.3 mph /  11.7 km/h 16.1 mph /  25.9 km/h 67 % 0.00 in /  0 mm
16:34 26.6 °F /  -3 °C 16.8 °F /  -8.4 °C 29.56 in /  1000.9 hPa NNW 7.9 mph /  12.7 km/h 17.0 mph /  27.4 km/h 66 % 0.00 in /  0 mm
16:39 26.4 °F /  -3.1 °C 17.3 °F /  -8.2 °C 29.56 in /  1000.9 hPa West 5.5 mph /  8.9 km/h 10.4 mph /  16.7 km/h 68 % 0.00 in /  0 mm
16:44 26.6 °F /  -3 °C 17.8 °F /  -7.9 °C 29.56 in /  1000.9 hPa NW 9.0 mph /  14.5 km/h 17.0 mph /  27.4 km/h 69 % 0.00 in /  0 mm
16:49 26.7 °F /  -2.9 °C 17.6 °F /  -8 °C 29.57 in /  1001.2 hPa WSW 8.2 mph /  13.2 km/h 17.3 mph /  27.8 km/h 68 % 0.00 in /  0 mm
16:54 26.8 °F /  -2.9 °C 17.3 °F /  -8.2 °C 29.57 in /  1001.2 hPa West 8.0 mph /  12.9 km/h 11.5 mph /  18.5 km/h 67 % 0.00 in /  0 mm
16:59 26.9 °F /  -2.8 °C 17.7 °F /  -7.9 °C 29.57 in /  1001.2 hPa WSW 8.8 mph /  14.2 km/h 12.7 mph /  20.4 km/h 68 % 0.00 in /  0 mm
17:04 26.6 °F /  -3 °C 18.5 °F /  -7.5 °C 29.58 in /  1001.6 hPa WSW 10.4 mph /  16.7 km/h 17.3 mph /  27.8 km/h 71 % 0.00 in /  0 mm
17:09 26.1 °F /  -3.3 °C 18.6 °F /  -7.4 °C 29.58 in /  1001.6 hPa WSW 11.9 mph /  19.2 km/h 18.0 mph /  29 km/h 73 % 0.00 in /  0 mm
17:14 25.9 °F /  -3.4 °C 18.4 °F /  -7.6 °C 29.58 in /  1001.6 hPa West 11.3 mph /  18.2 km/h 15.0 mph /  24.1 km/h 73 % 0.00 in /  0 mm
17:19 25.8 °F /  -3.4 °C 18.3 °F /  -7.6 °C 29.58 in /  1001.6 hPa WSW 12.7 mph /  20.4 km/h 21.9 mph /  35.2 km/h 73 % 0.00 in /  0 mm
17:24 25.8 °F /  -3.4 °C 18.0 °F /  -7.8 °C 29.58 in /  1001.6 hPa West 9.5 mph /  15.3 km/h 15.0 mph /  24.1 km/h 72 % 0.00 in /  0 mm
17:29 25.9 °F /  -3.4 °C 18.1 °F /  -7.7 °C 29.58 in /  1001.6 hPa NNW 5.7 mph /  9.2 km/h 11.5 mph /  18.5 km/h 72 % 0.00 in /  0 mm
17:34 26.1 °F /  -3.3 °C 18.3 °F /  -7.6 °C 29.58 in /  1001.6 hPa WNW 7.4 mph /  11.9 km/h 11.5 mph /  18.5 km/h 72 % 0.00 in /  0 mm
17:39 26.4 °F /  -3.1 °C 18.3 °F /  -7.6 °C 29.59 in /  1001.9 hPa SW 8.8 mph /  14.2 km/h 17.3 mph /  27.8 km/h 71 % 0.00 in /  0 mm
17:44 26.5 °F /  -3.1 °C 17.7 °F /  -7.9 °C 29.59 in /  1001.9 hPa WNW 9.3 mph /  15 km/h 15.0 mph /  24.1 km/h 69 % 0.00 in /  0 mm
17:49 26.5 °F /  -3.1 °C 18.0 °F /  -7.8 °C 29.59 in /  1001.9 hPa NW 5.3 mph /  8.5 km/h 9.2 mph /  14.8 km/h 70 % 0.00 in /  0 mm
17:54 26.4 °F /  -3.1 °C 17.3 °F /  -8.2 °C 29.60 in /  1002.3 hPa WSW 6.3 mph /  10.1 km/h 10.4 mph /  16.7 km/h 68 % 0.00 in /  0 mm
17:59 26.3 °F /  -3.2 °C 17.2 °F /  -8.2 °C 29.60 in /  1002.3 hPa NNW 10.3 mph /  16.6 km/h 20.7 mph /  33.3 km/h 68 % 0.00 in /  0 mm
18:04 26.2 °F /  -3.2 °C 17.1 °F /  -8.3 °C 29.60 in /  1002.3 hPa West 7.5 mph /  12.1 km/h 15.0 mph /  24.1 km/h 68 % 0.00 in /  0 mm
18:09 26.1 °F /  -3.3 °C 17.0 °F /  -8.3 °C 29.60 in /  1002.3 hPa WSW 4.8 mph /  7.7 km/h 16.1 mph /  25.9 km/h 68 % 0.00 in /  0 mm
18:14 26.1 °F /  -3.3 °C 17.3 °F /  -8.2 °C 29.61 in /  1002.6 hPa West 9.0 mph /  14.5 km/h 13.8 mph /  22.2 km/h 69 % 0.00 in /  0 mm
18:19 26.1 °F /  -3.3 °C 17.3 °F /  -8.2 °C 29.61 in /  1002.6 hPa WSW 8.5 mph /  13.7 km/h 16.1 mph /  25.9 km/h 69 % 0.00 in /  0 mm
18:24 26.1 °F /  -3.3 °C 17.0 °F /  -8.3 °C 29.61 in /  1002.6 hPa West 4.8 mph /  7.7 km/h 13.0 mph /  20.9 km/h 68 % 0.00 in /  0 mm
18:29 26.1 °F /  -3.3 °C 16.3 °F /  -8.7 °C 29.62 in /  1002.9 hPa WSW 11.1 mph /  17.9 km/h 13.8 mph /  22.2 km/h 66 % 0.00 in /  0 mm
18:34 26.1 °F /  -3.3 °C 16.3 °F /  -8.7 °C 29.62 in /  1002.9 hPa WSW 9.5 mph /  15.3 km/h 14.0 mph /  22.5 km/h 66 % 0.00 in /  0 mm
18:39 26.0 °F /  -3.3 °C 15.8 °F /  -9 °C 29.62 in /  1002.9 hPa West 7.7 mph /  12.4 km/h 10.4 mph /  16.7 km/h 65 % 0.00 in /  0 mm
18:44 26.0 °F /  -3.3 °C 15.5 °F /  -9.2 °C 29.62 in /  1002.9 hPa NW 9.1 mph /  14.6 km/h 19.6 mph /  31.5 km/h 64 % 0.00 in /  0 mm
18:49 26.0 °F /  -3.3 °C 15.1 °F /  -9.4 °C 29.63 in /  1003.3 hPa WNW 12.0 mph /  19.3 km/h 19.6 mph /  31.5 km/h 63 % 0.00 in /  0 mm
18:54 26.1 °F /  -3.3 °C 15.6 °F /  -9.1 °C 29.64 in /  1003.6 hPa NW 8.2 mph /  13.2 km/h 13.0 mph /  20.9 km/h 64 % 0.00 in /  0 mm
19:00 26.1 °F /  -3.3 °C 15.9 °F /  -8.9 °C 29.63 in /  1003.3 hPa NNW 5.8 mph /  9.3 km/h 21.9 mph /  35.2 km/h 65 % 0.00 in /  0 mm
19:05 26.3 °F /  -3.2 °C 15.8 °F /  -9 °C 29.64 in /  1003.6 hPa SW 10.2 mph /  16.4 km/h 19.6 mph /  31.5 km/h 64 % 0.00 in /  0 mm
19:10 26.3 °F /  -3.2 °C 15.4 °F /  -9.2 °C 29.64 in /  1003.6 hPa WNW 9.1 mph /  14.6 km/h 18.0 mph /  29 km/h 63 % 0.00 in /  0 mm
19:15 26.3 °F /  -3.2 °C 15.8 °F /  -9 °C 29.64 in /  1003.6 hPa West 9.9 mph /  15.9 km/h 16.0 mph /  25.7 km/h 64 % 0.00 in /  0 mm
19:20 26.3 °F /  -3.2 °C 15.4 °F /  -9.2 °C 29.64 in /  1003.6 hPa NW 9.9 mph /  15.9 km/h 19.6 mph /  31.5 km/h 63 % 0.00 in /  0 mm
19:25 26.3 °F /  -3.2 °C 16.1 °F /  -8.8 °C 29.65 in /  1003.9 hPa NW 9.5 mph /  15.3 km/h 21.0 mph /  33.8 km/h 65 % 0.00 in /  0 mm
19:30 26.2 °F /  -3.2 °C 16.0 °F /  -8.9 °C 29.66 in /  1004.3 hPa West 11.2 mph /  18 km/h 11.2 mph /  18 km/h 65 % 0.00 in /  0 mm
19:35 26.2 °F /  -3.2 °C 15.3 °F /  -9.3 °C 29.66 in /  1004.3 hPa NW 10.3 mph /  16.6 km/h 20.7 mph /  33.3 km/h 63 % 0.00 in /  0 mm
19:40 26.2 °F /  -3.2 °C 15.3 °F /  -9.3 °C 29.67 in /  1004.6 hPa West 11.4 mph /  18.3 km/h 18.4 mph /  29.6 km/h 63 % 0.00 in /  0 mm
19:45 26.2 °F /  -3.2 °C 15.3 °F /  -9.3 °C 29.66 in /  1004.3 hPa WNW 11.8 mph /  19 km/h 19.6 mph /  31.5 km/h 63 % 0.00 in /  0 mm
19:50 26.1 °F /  -3.3 °C 14.8 °F /  -9.6 °C 29.67 in /  1004.6 hPa WNW 9.5 mph /  15.3 km/h 19.6 mph /  31.5 km/h 62 % 0.00 in /  0 mm
19:55 26.2 °F /  -3.2 °C 14.9 °F /  -9.5 °C 29.67 in /  1004.6 hPa WNW 9.2 mph /  14.8 km/h 15.0 mph /  24.1 km/h 62 % 0.00 in /  0 mm
20:00 26.2 °F /  -3.2 °C 14.2 °F /  -9.9 °C 29.68 in /  1005 hPa West 12.0 mph /  19.3 km/h 24.2 mph /  38.9 km/h 60 % 0.00 in /  0 mm
20:05 26.2 °F /  -3.2 °C 14.2 °F /  -9.9 °C 29.68 in /  1005 hPa WSW 8.7 mph /  14 km/h 20.7 mph /  33.3 km/h 60 % 0.00 in /  0 mm
20:10 26.2 °F /  -3.2 °C 14.6 °F /  -9.7 °C 29.68 in /  1005 hPa WNW 10.0 mph /  16.1 km/h 17.3 mph /  27.8 km/h 61 % 0.00 in /  0 mm
20:15 26.2 °F /  -3.2 °C 14.2 °F /  -9.9 °C 29.69 in /  1005.3 hPa NW 11.1 mph /  17.9 km/h 15.0 mph /  24.1 km/h 60 % 0.00 in /  0 mm
20:20 26.2 °F /  -3.2 °C 14.6 °F /  -9.7 °C 29.69 in /  1005.3 hPa WNW 10.0 mph /  16.1 km/h 16.1 mph /  25.9 km/h 61 % 0.00 in /  0 mm
20:25 26.3 °F /  -3.2 °C 15.0 °F /  -9.4 °C 29.70 in /  1005.6 hPa WNW 11.0 mph /  17.7 km/h 17.3 mph /  27.8 km/h 62 % 0.00 in /  0 mm
20:30 26.2 °F /  -3.2 °C 14.2 °F /  -9.9 °C 29.70 in /  1005.6 hPa West 8.7 mph /  14 km/h 18.4 mph /  29.6 km/h 60 % 0.00 in /  0 mm
20:35 26.3 °F /  -3.2 °C 15.0 °F /  -9.4 °C 29.71 in /  1006 hPa West 10.4 mph /  16.7 km/h 22.0 mph /  35.4 km/h 62 % 0.00 in /  0 mm
20:40 26.3 °F /  -3.2 °C 15.0 °F /  -9.4 °C 29.71 in /  1006 hPa West 5.9 mph /  9.5 km/h 12.7 mph /  20.4 km/h 62 % 0.00 in /  0 mm
20:45 26.3 °F /  -3.2 °C 15.0 °F /  -9.4 °C 29.72 in /  1006.3 hPa NW 7.5 mph /  12.1 km/h 18.4 mph /  29.6 km/h 62 % 0.00 in /  0 mm
20:50 26.2 °F /  -3.2 °C 14.9 °F /  -9.5 °C 29.72 in /  1006.3 hPa NNW 6.5 mph /  10.5 km/h 13.8 mph /  22.2 km/h 62 % 0.00 in /  0 mm
20:56 26.2 °F /  -3.2 °C 14.6 °F /  -9.7 °C 29.72 in /  1006.3 hPa NW 6.4 mph /  10.3 km/h 12.7 mph /  20.4 km/h 61 % 0.00 in /  0 mm
21:01 26.2 °F /  -3.2 °C 14.6 °F /  -9.7 °C 29.72 in /  1006.3 hPa West 15.4 mph /  24.8 km/h 26.0 mph /  41.8 km/h 61 % 0.00 in /  0 mm
21:06 26.3 °F /  -3.2 °C 15.0 °F /  -9.4 °C 29.73 in /  1006.7 hPa WSW 10.7 mph /  17.2 km/h 21.9 mph /  35.2 km/h 62 % 0.00 in /  0 mm
21:11 26.3 °F /  -3.2 °C 15.4 °F /  -9.2 °C 29.73 in /  1006.7 hPa West 6.8 mph /  10.9 km/h 13.0 mph /  20.9 km/h 63 % 0.00 in /  0 mm
21:16 26.3 °F /  -3.2 °C 15.4 °F /  -9.2 °C 29.73 in /  1006.7 hPa WSW 6.9 mph /  11.1 km/h 13.8 mph /  22.2 km/h 63 % 0.00 in /  0 mm
21:21 26.3 °F /  -3.2 °C 15.0 °F /  -9.4 °C 29.74 in /  1007 hPa WSW 12.2 mph /  19.6 km/h 21.0 mph /  33.8 km/h 62 % 0.00 in /  0 mm
21:26 26.3 °F /  -3.2 °C 15.4 °F /  -9.2 °C 29.74 in /  1007 hPa West 8.5 mph /  13.7 km/h 17.3 mph /  27.8 km/h 63 % 0.00 in /  0 mm
21:31 26.3 °F /  -3.2 °C 15.4 °F /  -9.2 °C 29.74 in /  1007 hPa West 5.6 mph /  9 km/h 18.4 mph /  29.6 km/h 63 % 0.00 in /  0 mm
21:36 26.2 °F /  -3.2 °C 14.9 °F /  -9.5 °C 29.74 in /  1007 hPa WNW 9.1 mph /  14.6 km/h 17.3 mph /  27.8 km/h 62 % 0.00 in /  0 mm
21:41 26.2 °F /  -3.2 °C 15.3 °F /  -9.3 °C 29.75 in /  1007.3 hPa WNW 8.5 mph /  13.7 km/h 16.0 mph /  25.7 km/h 63 % 0.00 in /  0 mm
21:46 26.2 °F /  -3.2 °C 14.9 °F /  -9.5 °C 29.75 in /  1007.3 hPa WSW 7.2 mph /  11.6 km/h 14.0 mph /  22.5 km/h 62 % 0.00 in /  0 mm
21:51 26.3 °F /  -3.2 °C 15.4 °F /  -9.2 °C 29.75 in /  1007.3 hPa West 7.4 mph /  11.9 km/h 13.8 mph /  22.2 km/h 63 % 0.00 in /  0 mm
21:56 26.3 °F /  -3.2 °C 15.4 °F /  -9.2 °C 29.76 in /  1007.7 hPa WSW 11.4 mph /  18.3 km/h 22.0 mph /  35.4 km/h 63 % 0.00 in /  0 mm
22:01 26.3 °F /  -3.2 °C 15.0 °F /  -9.4 °C 29.76 in /  1007.7 hPa NW 9.6 mph /  15.4 km/h 19.6 mph /  31.5 km/h 62 % 0.00 in /  0 mm
22:06 26.4 °F /  -3.1 °C 15.5 °F /  -9.2 °C 29.77 in /  1008 hPa WNW 8.9 mph /  14.3 km/h 18.4 mph /  29.6 km/h 63 % 0.00 in /  0 mm
22:11 26.4 °F /  -3.1 °C 15.9 °F /  -8.9 °C 29.77 in /  1008 hPa WNW 7.6 mph /  12.2 km/h 18.4 mph /  29.6 km/h 64 % 0.00 in /  0 mm
22:16 26.5 °F /  -3.1 °C 15.6 °F /  -9.1 °C 29.77 in /  1008 hPa West 8.0 mph /  12.9 km/h 13.8 mph /  22.2 km/h 63 % 0.00 in /  0 mm
22:21 26.5 °F /  -3.1 °C 16.3 °F /  -8.7 °C 29.77 in /  1008 hPa WSW 5.7 mph /  9.2 km/h 11.5 mph /  18.5 km/h 65 % 0.00 in /  0 mm
22:26 26.6 °F /  -3 °C 16.1 °F /  -8.8 °C 29.77 in /  1008 hPa West 7.2 mph /  11.6 km/h 23.0 mph /  37 km/h 64 % 0.00 in /  0 mm
22:31 26.6 °F /  -3 °C 16.4 °F /  -8.7 °C 29.77 in /  1008 hPa WNW 9.7 mph /  15.6 km/h 20.0 mph /  32.2 km/h 65 % 0.00 in /  0 mm
22:36 26.6 °F /  -3 °C 16.8 °F /  -8.4 °C 29.78 in /  1008.4 hPa West 10.3 mph /  16.6 km/h 17.3 mph /  27.8 km/h 66 % 0.00 in /  0 mm
22:41 26.6 °F /  -3 °C 16.8 °F /  -8.4 °C 29.78 in /  1008.4 hPa NW 8.7 mph /  14 km/h 15.0 mph /  24.1 km/h 66 % 0.00 in /  0 mm
22:46 26.6 °F /  -3 °C 17.1 °F /  -8.3 °C 29.77 in /  1008 hPa NW 9.9 mph /  15.9 km/h 12.7 mph /  20.4 km/h 67 % 0.00 in /  0 mm
22:51 26.6 °F /  -3 °C 16.8 °F /  -8.4 °C 29.78 in /  1008.4 hPa WSW 5.0 mph /  8 km/h 15.0 mph /  24.1 km/h 66 % 0.00 in /  0 mm
22:56 26.7 °F /  -2.9 °C 17.6 °F /  -8 °C 29.78 in /  1008.4 hPa NW 7.4 mph /  11.9 km/h 13.0 mph /  20.9 km/h 68 % 0.00 in /  0 mm
23:01 26.7 °F /  -2.9 °C 17.2 °F /  -8.2 °C 29.78 in /  1008.4 hPa West 6.6 mph /  10.6 km/h 13.8 mph /  22.2 km/h 67 % 0.00 in /  0 mm
23:06 26.7 °F /  -2.9 °C 17.2 °F /  -8.2 °C 29.78 in /  1008.4 hPa WNW 9.6 mph /  15.4 km/h 19.6 mph /  31.5 km/h 67 % 0.00 in /  0 mm
23:11 26.7 °F /  -2.9 °C 16.9 °F /  -8.4 °C 29.78 in /  1008.4 hPa NNW 9.3 mph /  15 km/h 19.0 mph /  30.6 km/h 66 % 0.00 in /  0 mm
23:16 26.8 °F /  -2.9 °C 17.0 °F /  -8.3 °C 29.78 in /  1008.4 hPa WSW 7.9 mph /  12.7 km/h 12.7 mph /  20.4 km/h 66 % 0.00 in /  0 mm
23:21 26.8 °F /  -2.9 °C 16.6 °F /  -8.6 °C 29.78 in /  1008.4 hPa West 10.1 mph /  16.3 km/h 17.3 mph /  27.8 km/h 65 % 0.00 in /  0 mm
23:27 26.9 °F /  -2.8 °C 16.7 °F /  -8.5 °C 29.78 in /  1008.4 hPa West 9.9 mph /  15.9 km/h 26.0 mph /  41.8 km/h 65 % 0.00 in /  0 mm
23:32 26.9 °F /  -2.8 °C 16.3 °F /  -8.7 °C 29.78 in /  1008.4 hPa WSW 7.0 mph /  11.3 km/h 20.7 mph /  33.3 km/h 64 % 0.00 in /  0 mm
23:37 26.9 °F /  -2.8 °C 16.7 °F /  -8.5 °C 29.78 in /  1008.4 hPa West 9.9 mph /  15.9 km/h 16.1 mph /  25.9 km/h 65 % 0.00 in /  0 mm
23:42 26.9 °F /  -2.8 °C 16.0 °F /  -8.9 °C 29.78 in /  1008.4 hPa WNW 7.5 mph /  12.1 km/h 19.6 mph /  31.5 km/h 63 % 0.00 in /  0 mm
23:47 27.0 °F /  -2.8 °C 16.4 °F /  -8.7 °C 29.79 in /  1008.7 hPa NW 8.0 mph /  12.9 km/h 11.5 mph /  18.5 km/h 64 % 0.00 in /  0 mm
23:52 26.9 °F /  -2.8 °C 16.0 °F /  -8.9 °C 29.79 in /  1008.7 hPa WSW 7.2 mph /  11.6 km/h 21.9 mph /  35.2 km/h 63 % 0.00 in /  0 mm
23:57 26.9 °F /  -2.8 °C 16.0 °F /  -8.9 °C 29.79 in /  1008.7 hPa West 10.3 mph /  16.6 km/h 28.0 mph /  45.1 km/h 63 % 0.00 in /  0 mm
Crab Meadow Weather
Compliments of Weather Underground - 3 mb

Script developed by  Jim McMurry - jmcmurry@mwt.net Adapted for the template by  Wim van der Kuil - Leuven-Template.eu

Astronomy: It takes Saturn exactly 29.46 years to travel once around the Sun.